Time;durP1;ratioP1;P1;durP2;ratioP2;P2;SDS_P1;SDS_P2;PMS_P1;PMS_P2;Temp;Humidity;BMP_temperature;BMP_pressure;BME280_temperature;BME280_humidity;BME280_pressure;Samples;Min_cycle;Max_cycle;Signal;HPM_P1;HPM_P2
2021/03/29 00:00:11;;;;;;;6.10;3.33;;;;;;;;;;5157202;27;20634;-72
2021/03/29 00:02:37;;;;;;;8.73;3.65;;;;;;;;;;5146058;27;20187;-71
2021/03/29 00:05:04;;;;;;;6.38;3.78;;;;;;;;;;5156982;27;20656;-71
2021/03/29 00:07:32;;;;;;;7.13;4.47;;;;;;;;;;5156931;27;20198;-71
2021/03/29 00:10:00;;;;;;;10.32;4.13;;;;;;;;;;5156328;27;20582;-72
2021/03/29 00:12:26;;;;;;;5.40;3.40;;;;;;;;;;5155843;27;20317;-71
2021/03/29 00:14:53;;;;;;;7.07;3.88;;;;;;;;;;5155593;27;20255;-71
2021/03/29 00:17:20;;;;;;;7.78;3.80;;;;;;;;;;5156381;27;20206;-71
2021/03/29 00:19:46;;;;;;;6.88;4.55;;;;;;;;;;5156953;27;20630;-72
2021/03/29 00:22:13;;;;;;;8.52;4.43;;;;;;;;;;5156256;27;20255;-70
2021/03/29 00:24:40;;;;;;;5.80;3.30;;;;;;;;;;5152263;27;20198;-71
2021/03/29 00:27:06;;;;;;;4.60;3.40;;;;;;;;;;5155706;27;20195;-71
2021/03/29 00:29:33;;;;;;;7.60;4.20;;;;;;;;;;5147143;27;20198;-71
2021/03/29 00:31:59;;;;;;;11.35;4.80;;;;;;;;;;5156406;27;20213;-72
2021/03/29 00:34:26;;;;;;;8.95;4.43;;;;;;;;;;5156823;27;20201;-70
2021/03/29 00:36:53;;;;;;;5.85;4.80;;;;;;;;;;5156214;27;20241;-71
2021/03/29 00:39:20;;;;;;;7.80;4.43;;;;;;;;;;5156229;27;20202;-72
2021/03/29 00:41:47;;;;;;;5.70;4.32;;;;;;;;;;5156222;27;20246;-71
2021/03/29 00:44:14;;;;;;;7.90;4.30;;;;;;;;;;5155716;27;20233;-72
2021/03/29 00:46:40;;;;;;;7.95;4.72;;;;;;;;;;5156147;27;20254;-71
2021/03/29 00:49:07;;;;;;;5.85;4.30;;;;;;;;;;5155967;27;20193;-72
2021/03/29 00:51:36;;;;;;;5.97;4.20;;;;;;;;;;5134802;27;20247;-71
2021/03/29 00:54:04;;;;;;;7.53;3.67;;;;;;;;;;5135360;27;20184;-71
2021/03/29 00:56:32;;;;;;;11.85;4.32;;;;;;;;;;5135157;27;20237;-71
2021/03/29 00:58:58;;;;;;;8.82;4.90;;;;;;;;;;5134687;27;20338;-72
2021/03/29 01:01:25;;;;;;;7.22;4.32;;;;;;;;;;5134543;27;20196;-71
2021/03/29 01:03:53;;;;;;;5.53;4.18;;;;;;;;;;5134986;27;20195;-71
2021/03/29 01:06:20;;;;;;;6.45;3.78;;;;;;;;;;5135058;27;20716;-72
2021/03/29 01:08:47;;;;;;;8.20;5.30;;;;;;;;;;5134641;27;20199;-72
2021/03/29 01:11:16;;;;;;;7.45;3.58;;;;;;;;;;5134975;27;20250;-72
2021/03/29 01:13:44;;;;;;;13.93;4.93;;;;;;;;;;5135008;27;20546;-72
2021/03/29 01:16:12;;;;;;;7.63;3.67;;;;;;;;;;5135186;27;20897;-71
2021/03/29 01:18:41;;;;;;;8.13;4.78;;;;;;;;;;5134924;27;20205;-72
2021/03/29 01:21:15;;;;;;;7.45;4.00;;;;;;;;;;5151366;27;20194;-71
2021/03/29 01:23:42;;;;;;;7.78;4.05;;;;;;;;;;5145846;27;20232;-72
2021/03/29 01:26:12;;;;;;;6.05;4.40;;;;;;;;;;5134016;27;20202;-72
2021/03/29 01:28:39;;;;;;;9.50;4.00;;;;;;;;;;5134423;27;20267;-72
2021/03/29 01:31:05;;;;;;;5.80;3.55;;;;;;;;;;5134410;27;20241;-71
2021/03/29 01:33:32;;;;;;;8.93;4.65;;;;;;;;;;5134238;27;20255;-72
2021/03/29 01:35:59;;;;;;;5.57;4.10;;;;;;;;;;5134620;27;20668;-71
2021/03/29 01:38:26;;;;;;;5.93;4.25;;;;;;;;;;5134101;27;20247;-71
2021/03/29 01:40:53;;;;;;;4.75;3.53;;;;;;;;;;5134383;27;20199;-71
2021/03/29 01:43:19;;;;;;;9.13;4.72;;;;;;;;;;5134203;27;20230;-71
2021/03/29 01:45:49;;;;;;;6.50;3.97;;;;;;;;;;5134660;27;20209;-71
2021/03/29 01:48:16;;;;;;;15.77;4.20;;;;;;;;;;5134461;27;20199;-71
2021/03/29 01:50:43;;;;;;;7.18;4.55;;;;;;;;;;5134547;27;20616;-73
2021/03/29 01:53:10;;;;;;;6.43;4.53;;;;;;;;;;5134151;27;20222;-71
2021/03/29 01:55:36;;;;;;;6.60;4.78;;;;;;;;;;5134102;27;20226;-71
2021/03/29 01:58:03;;;;;;;8.57;4.50;;;;;;;;;;5133957;27;20194;-71
2021/03/29 02:00:31;;;;;;;6.03;4.07;;;;;;;;;;5133915;27;20230;-72
2021/03/29 02:02:59;;;;;;;7.00;4.00;;;;;;;;;;5134510;27;20534;-71
2021/03/29 02:05:26;;;;;;;5.93;3.53;;;;;;;;;;5133884;27;20203;-71
2021/03/29 02:07:52;;;;;;;6.55;3.78;;;;;;;;;;5134165;27;20186;-71
2021/03/29 02:10:21;;;;;;;8.55;4.18;;;;;;;;;;5133454;27;20254;-71
2021/03/29 02:12:47;;;;;;;7.88;3.85;;;;;;;;;;5133615;27;20218;-70
2021/03/29 02:15:15;;;;;;;10.55;3.85;;;;;;;;;;5133879;28;20206;-71
2021/03/29 02:17:43;;;;;;;4.88;3.75;;;;;;;;;;5133692;27;20202;-72
2021/03/29 02:20:12;;;;;;;7.45;3.65;;;;;;;;;;5133953;27;20657;-71
2021/03/29 02:22:39;;;;;;;6.30;4.35;;;;;;;;;;5133887;27;20194;-72
2021/03/29 02:25:06;;;;;;;4.80;3.63;;;;;;;;;;5134396;27;20194;-72
2021/03/29 02:27:33;;;;;;;5.85;3.90;;;;;;;;;;5133241;27;20205;-71
2021/03/29 02:29:59;;;;;;;8.10;4.57;;;;;;;;;;5133841;28;20206;-71
2021/03/29 02:32:26;;;;;;;4.70;3.55;;;;;;;;;;5133464;28;20214;-71
2021/03/29 02:34:52;;;;;;;3.97;3.30;;;;;;;;;;5134686;27;20194;-71
2021/03/29 02:37:19;;;;;;;4.75;4.05;;;;;;;;;;5135222;27;20241;-71
2021/03/29 02:39:45;;;;;;;5.40;3.80;;;;;;;;;;5138244;27;20247;-71
2021/03/29 02:42:11;;;;;;;3.90;3.50;;;;;;;;;;5138091;27;20213;-72
2021/03/29 02:44:38;;;;;;;7.55;4.20;;;;;;;;;;5137931;27;20642;-71
2021/03/29 02:47:04;;;;;;;8.13;4.45;;;;;;;;;;5137661;27;20195;-70
2021/03/29 02:49:31;;;;;;;7.07;4.43;;;;;;;;;;5137914;27;20297;-71
2021/03/29 02:51:59;;;;;;;5.40;3.60;;;;;;;;;;5137631;27;20207;-71
2021/03/29 02:54:26;;;;;;;4.72;3.72;;;;;;;;;;5138190;27;20544;-71
2021/03/29 02:56:53;;;;;;;4.80;3.20;;;;;;;;;;5137548;27;20236;-71
2021/03/29 02:59:19;;;;;;;6.85;4.75;;;;;;;;;;5137736;27;20632;-71
2021/03/29 03:01:46;;;;;;;7.55;4.22;;;;;;;;;;5137521;27;20198;-71
2021/03/29 03:04:13;;;;;;;9.95;3.65;;;;;;;;;;5146685;27;20183;-71
2021/03/29 03:06:40;;;;;;;5.82;4.05;;;;;;;;;;5158068;27;20288;-71
2021/03/29 03:09:08;;;;;;;5.70;3.13;;;;;;;;;;5157743;27;20202;-71
2021/03/29 03:11:35;;;;;;;4.50;3.47;;;;;;;;;;5158140;27;20214;-71
2021/03/29 03:14:03;;;;;;;6.10;3.85;;;;;;;;;;5157948;27;20202;-72
2021/03/29 03:16:30;;;;;;;9.07;4.47;;;;;;;;;;5157671;27;20266;-71
2021/03/29 03:18:56;;;;;;;5.65;3.13;;;;;;;;;;5158176;27;20674;-72
2021/03/29 03:21:22;;;;;;;6.55;3.50;;;;;;;;;;5157467;27;20200;-71
2021/03/29 03:23:51;;;;;;;11.30;4.80;;;;;;;;;;5157463;27;20273;-72
2021/03/29 03:26:18;;;;;;;7.45;3.20;;;;;;;;;;5157688;27;20198;-71
2021/03/29 03:28:45;;;;;;;6.88;3.50;;;;;;;;;;5157377;27;20529;-71
2021/03/29 03:31:11;;;;;;;6.45;3.55;;;;;;;;;;5157419;27;20225;-72
2021/03/29 03:33:37;;;;;;;4.88;2.95;;;;;;;;;;5146229;27;20194;-71
2021/03/29 03:36:03;;;;;;;5.78;3.58;;;;;;;;;;5137063;27;20586;-71
2021/03/29 03:38:30;;;;;;;9.52;4.20;;;;;;;;;;5136988;27;20203;-71
2021/03/29 03:40:58;;;;;;;9.27;3.80;;;;;;;;;;5136187;27;20201;-72
2021/03/29 03:43:25;;;;;;;4.38;3.30;;;;;;;;;;5136423;27;20213;-71
2021/03/29 03:45:53;;;;;;;10.38;4.22;;;;;;;;;;5136389;27;20240;-72
2021/03/29 03:48:20;;;;;;;4.93;3.78;;;;;;;;;;5136573;27;20220;-71
2021/03/29 03:50:47;;;;;;;8.48;4.43;;;;;;;;;;5136502;27;20210;-71
2021/03/29 03:53:14;;;;;;;10.15;3.10;;;;;;;;;;5136509;27;20675;-71
2021/03/29 03:55:40;;;;;;;7.00;3.78;;;;;;;;;;5136254;27;20198;-72
2021/03/29 03:58:06;;;;;;;10.38;4.00;;;;;;;;;;5136695;27;20216;-71
2021/03/29 04:00:32;;;;;;;4.93;3.95;;;;;;;;;;5136970;27;20198;-72
2021/03/29 04:02:59;;;;;;;7.10;4.15;;;;;;;;;;5140572;27;20174;-71
2021/03/29 04:05:26;;;;;;;7.18;3.17;;;;;;;;;;5157343;27;20264;-71
2021/03/29 04:07:52;;;;;;;5.28;3.10;;;;;;;;;;5157166;27;20200;-71
2021/03/29 04:10:20;;;;;;;8.93;4.55;;;;;;;;;;5156957;27;20205;-72
2021/03/29 04:12:50;;;;;;;5.68;3.47;;;;;;;;;;5157345;27;20198;-71
2021/03/29 04:15:16;;;;;;;13.23;3.50;;;;;;;;;;5156979;27;20250;-70
2021/03/29 04:17:42;;;;;;;10.70;4.40;;;;;;;;;;5157040;27;20198;-71
2021/03/29 04:20:09;;;;;;;7.60;3.72;;;;;;;;;;5157229;27;20451;-72
2021/03/29 04:22:36;;;;;;;5.82;3.42;;;;;;;;;;5157254;27;20203;-71
2021/03/29 04:25:02;;;;;;;8.73;3.38;;;;;;;;;;5156269;27;20560;-71
2021/03/29 04:27:28;;;;;;;5.47;2.97;;;;;;;;;;5156566;27;20182;-70
2021/03/29 04:29:54;;;;;;;6.40;3.65;;;;;;;;;;5156877;27;20585;-70
2021/03/29 04:32:20;;;;;;;9.93;3.60;;;;;;;;;;5156482;27;20225;-70
2021/03/29 04:34:47;;;;;;;5.57;3.50;;;;;;;;;;5156118;27;20626;-70
2021/03/29 04:37:14;;;;;;;6.28;3.17;;;;;;;;;;5156232;27;20282;-70
2021/03/29 04:39:40;;;;;;;8.68;4.35;;;;;;;;;;5156496;27;20198;-71
2021/03/29 04:42:07;;;;;;;8.02;3.75;;;;;;;;;;5156471;27;20202;-71
2021/03/29 04:44:33;;;;;;;8.32;4.63;;;;;;;;;;5156481;27;20291;-70
2021/03/29 04:47:00;;;;;;;8.27;3.10;;;;;;;;;;5156868;27;20204;-70
2021/03/29 04:49:26;;;;;;;7.50;3.67;;;;;;;;;;5156718;27;20679;-71
2021/03/29 04:51:52;;;;;;;4.90;4.38;;;;;;;;;;5156188;27;20705;-70
2021/03/29 04:54:19;;;;;;;8.70;4.45;;;;;;;;;;5156295;27;20198;-70
2021/03/29 04:56:45;;;;;;;10.80;4.03;;;;;;;;;;5156536;27;20237;-70
2021/03/29 04:59:11;;;;;;;4.43;3.85;;;;;;;;;;5155770;27;20181;-72
2021/03/29 05:01:38;;;;;;;3.45;2.50;;;;;;;;;;5156743;27;20231;-72
2021/03/29 05:04:04;;;;;;;6.30;3.45;;;;;;;;;;5154777;27;20627;-70
2021/03/29 05:06:31;;;;;;;8.68;4.00;;;;;;;;;;5156091;27;20257;-70
2021/03/29 05:08:57;;;;;;;7.80;3.70;;;;;;;;;;5156030;27;20197;-69
2021/03/29 05:11:34;;;;;;;9.18;4.43;;;;;;;;;;5156769;27;20616;-70
2021/03/29 05:14:00;;;;;;;6.60;3.15;;;;;;;;;;5156024;27;20249;-71
2021/03/29 05:16:26;;;;;;;5.25;3.45;;;;;;;;;;5156998;27;20182;-71
2021/03/29 05:18:52;;;;;;;8.07;3.58;;;;;;;;;;5156310;27;20203;-71
2021/03/29 05:21:18;;;;;;;4.82;4.07;;;;;;;;;;5156579;27;20220;-71
2021/03/29 05:23:44;;;;;;;8.95;3.63;;;;;;;;;;5152063;27;20182;-69
2021/03/29 05:26:10;;;;;;;8.45;4.90;;;;;;;;;;5147652;27;20190;-71
2021/03/29 05:28:37;;;;;;;8.82;3.50;;;;;;;;;;5154177;27;20182;-70
2021/03/29 05:31:04;;;;;;;8.85;4.53;;;;;;;;;;5151190;27;20194;-71
2021/03/29 05:33:30;;;;;;;9.68;5.28;;;;;;;;;;5155457;27;20205;-72
2021/03/29 05:35:56;;;;;;;9.13;5.70;;;;;;;;;;5146669;27;20230;-70
2021/03/29 05:38:22;;;;;;;4.75;4.35;;;;;;;;;;5146116;27;20199;-69
2021/03/29 05:40:50;;;;;;;7.05;4.43;;;;;;;;;;5155973;27;20194;-71
2021/03/29 05:43:16;;;;;;;5.32;3.35;;;;;;;;;;5155413;27;20206;-71
2021/03/29 05:45:44;;;;;;;10.10;4.88;;;;;;;;;;5155814;27;20186;-71
2021/03/29 05:48:10;;;;;;;10.07;4.65;;;;;;;;;;5148896;27;20202;-71
2021/03/29 05:50:36;;;;;;;6.95;4.68;;;;;;;;;;5146605;27;20193;-69
2021/03/29 05:53:02;;;;;;;7.78;4.07;;;;;;;;;;5143466;27;20594;-70
2021/03/29 05:55:33;;;;;;;9.32;4.28;;;;;;;;;;5151224;27;20945;-72
2021/03/29 05:58:29;;;;;;;8.85;3.97;;;;;;;;;;5155884;27;20196;-69
2021/03/29 06:00:56;;;;;;;7.20;4.53;;;;;;;;;;5155207;27;20202;-71
2021/03/29 06:03:24;;;;;;;7.55;4.25;;;;;;;;;;5155931;27;20535;-71
2021/03/29 06:05:51;;;;;;;7.80;3.70;;;;;;;;;;5155953;27;20199;-70
2021/03/29 06:08:18;;;;;;;12.93;4.60;;;;;;;;;;5155216;27;20201;-71
2021/03/29 06:10:44;;;;;;;14.60;5.03;;;;;;;;;;5155701;27;20249;-70
2021/03/29 06:13:15;;;;;;;7.55;4.18;;;;;;;;;;5155564;27;20213;-69
2021/03/29 06:15:41;;;;;;;5.15;3.60;;;;;;;;;;5155809;27;20254;-71
2021/03/29 06:18:11;;;;;;;4.75;3.95;;;;;;;;;;5155874;27;20279;-71
2021/03/29 06:20:52;;;;;;;7.63;4.70;;;;;;;;;;5155526;27;20200;-70
2021/03/29 06:23:18;;;;;;;8.57;4.70;;;;;;;;;;5154886;27;20212;-70
2021/03/29 06:25:44;;;;;;;8.23;5.57;;;;;;;;;;5144061;27;20293;-69
2021/03/29 06:28:22;;;;;;;5.82;4.18;;;;;;;;;;5134635;27;20652;-71
2021/03/29 06:30:48;;;;;;;6.82;4.47;;;;;;;;;;5135188;27;20198;-74
2021/03/29 06:33:16;;;;;;;8.77;5.03;;;;;;;;;;5134800;27;20725;-71
2021/03/29 06:35:43;;;;;;;9.85;4.68;;;;;;;;;;5134601;28;20237;-71
2021/03/29 06:38:10;;;;;;;6.28;4.40;;;;;;;;;;5134687;28;20557;-70
2021/03/29 06:40:37;;;;;;;6.63;4.28;;;;;;;;;;5138143;27;20202;-69
2021/03/29 06:43:18;;;;;;;16.38;4.72;;;;;;;;;;5150185;27;20204;-71
2021/03/29 06:45:45;;;;;;;11.60;4.80;;;;;;;;;;5152082;27;20289;-71
2021/03/29 06:48:19;;;;;;;6.32;4.43;;;;;;;;;;5154783;27;20198;-71
2021/03/29 06:50:46;;;;;;;12.10;4.60;;;;;;;;;;5154695;27;20215;-72
2021/03/29 06:53:24;;;;;;;8.93;4.05;;;;;;;;;;5154701;27;20247;-70
2021/03/29 06:55:51;;;;;;;7.07;4.68;;;;;;;;;;5153010;27;20209;-70
2021/03/29 06:58:24;;;;;;;11.73;4.28;;;;;;;;;;5155820;27;20186;-71
2021/03/29 07:00:54;;;;;;;10.65;4.97;;;;;;;;;;5151325;27;20182;-71
2021/03/29 07:03:21;;;;;;;17.20;4.57;;;;;;;;;;5154709;27;20672;-71
2021/03/29 07:05:48;;;;;;;7.10;3.10;;;;;;;;;;5154150;27;20640;-71
2021/03/29 07:08:14;;;;;;;6.55;4.10;;;;;;;;;;5135058;27;20324;-70
2021/03/29 07:10:40;;;;;;;6.38;3.67;;;;;;;;;;5133438;27;20205;-71
2021/03/29 07:13:07;;;;;;;6.13;3.75;;;;;;;;;;5143575;27;20215;-71
2021/03/29 07:15:34;;;;;;;5.43;3.80;;;;;;;;;;5154286;27;20535;-70
2021/03/29 07:18:01;;;;;;;6.70;3.40;;;;;;;;;;5153868;27;20205;-73
2021/03/29 07:20:29;;;;;;;5.30;3.88;;;;;;;;;;5153771;27;20175;-71
2021/03/29 07:22:55;;;;;;;6.07;3.70;;;;;;;;;;5155486;27;20198;-72
2021/03/29 07:25:22;;;;;;;8.02;4.45;;;;;;;;;;5157465;27;20514;-70
2021/03/29 07:27:49;;;;;;;8.65;4.25;;;;;;;;;;5156805;27;20282;-70
2021/03/29 07:30:16;;;;;;;7.20;4.40;;;;;;;;;;5155447;27;20290;-70
2021/03/29 07:32:52;;;;;;;7.32;4.05;;;;;;;;;;5157247;27;20253;-71
2021/03/29 07:35:19;;;;;;;4.53;3.88;;;;;;;;;;5157509;27;20206;-72
2021/03/29 07:37:54;;;;;;;4.75;3.50;;;;;;;;;;5157008;27;20698;-71
2021/03/29 07:40:42;;;;;;;6.75;4.00;;;;;;;;;;5157887;27;20214;-72
2021/03/29 07:43:11;;;;;;;7.10;4.10;;;;;;;;;;5155729;27;20199;-72
2021/03/29 07:45:58;;;;;;;7.05;3.80;;;;;;;;;;5154772;27;20559;-71
2021/03/29 07:48:42;;;;;;;6.78;3.55;;;;;;;;;;5147694;27;20283;-71
2021/03/29 07:51:10;;;;;;;12.57;5.75;;;;;;;;;;5145152;27;20205;-70
2021/03/29 07:53:42;;;;;;;4.18;3.75;;;;;;;;;;5152814;27;20576;-73
2021/03/29 07:56:08;;;;;;;7.38;3.97;;;;;;;;;;5156794;27;20627;-71
2021/03/29 07:58:43;;;;;;;9.52;3.08;;;;;;;;;;5156957;27;20231;-71
2021/03/29 08:01:10;;;;;;;7.28;4.03;;;;;;;;;;5156641;27;20186;-71
2021/03/29 08:03:51;;;;;;;5.10;2.85;;;;;;;;;;5156491;27;20296;-71
2021/03/29 08:06:37;;;;;;;6.38;3.60;;;;;;;;;;5156740;27;20219;-71
2021/03/29 08:09:04;;;;;;;4.45;3.22;;;;;;;;;;5152071;27;20191;-71
2021/03/29 08:11:45;;;;;;;6.05;3.45;;;;;;;;;;5136225;27;20230;-70
2021/03/29 08:14:26;;;;;;;3.80;3.40;;;;;;;;;;5135604;27;20202;-71
2021/03/29 08:16:52;;;;;;;6.78;2.78;;;;;;;;;;5135719;27;20208;-73
2021/03/29 08:19:20;;;;;;;4.18;3.58;;;;;;;;;;5136302;27;20202;-70
2021/03/29 08:21:47;;;;;;;5.05;3.22;;;;;;;;;;5136431;27;20953;-71
2021/03/29 08:24:17;;;;;;;6.93;4.25;;;;;;;;;;5153070;27;20233;-71
2021/03/29 08:26:44;;;;;;;6.18;4.10;;;;;;;;;;5150123;27;20195;-72
2021/03/29 08:29:17;;;;;;;7.13;3.80;;;;;;;;;;5142323;27;20277;-71
2021/03/29 08:32:03;;;;;;;8.73;4.15;;;;;;;;;;5156534;27;20528;-70
2021/03/29 08:34:30;;;;;;;7.70;4.50;;;;;;;;;;5135350;27;20202;-71
2021/03/29 08:36:59;;;;;;;6.32;3.55;;;;;;;;;;5139861;27;20308;-70
2021/03/29 08:39:30;;;;;;;4.53;3.33;;;;;;;;;;5135650;27;20199;-72
2021/03/29 08:41:56;;;;;;;4.55;3.35;;;;;;;;;;5150996;27;20194;-71
2021/03/29 08:44:22;;;;;;;3.20;2.67;;;;;;;;;;5141982;27;20537;-72
2021/03/29 08:46:50;;;;;;;6.95;3.20;;;;;;;;;;5149186;27;20627;-70
2021/03/29 08:49:17;;;;;;;5.25;2.60;;;;;;;;;;5156075;27;20548;-71
2021/03/29 08:51:43;;;;;;;7.22;2.88;;;;;;;;;;5155417;27;20214;-72
2021/03/29 08:54:10;;;;;;;8.77;2.45;;;;;;;;;;5151623;27;20187;-71
2021/03/29 08:56:38;;;;;;;7.18;3.78;;;;;;;;;;5147658;27;20202;-70
2021/03/29 08:59:04;;;;;;;3.00;2.38;;;;;;;;;;5135324;27;20243;-71
2021/03/29 09:01:31;;;;;;;6.38;2.80;;;;;;;;;;5142366;27;20198;-72
2021/03/29 09:04:00;;;;;;;4.43;2.50;;;;;;;;;;5144262;27;20203;-71
2021/03/29 09:06:26;;;;;;;5.00;2.38;;;;;;;;;;5155906;27;20292;-71
2021/03/29 09:08:53;;;;;;;8.02;2.83;;;;;;;;;;5156433;27;20202;-70
2021/03/29 09:11:19;;;;;;;7.15;3.00;;;;;;;;;;5154012;27;20534;-73
2021/03/29 09:13:46;;;;;;;6.65;2.75;;;;;;;;;;5155097;27;20214;-72
2021/03/29 09:16:12;;;;;;;6.95;3.80;;;;;;;;;;5155106;27;20215;-71
2021/03/29 09:18:39;;;;;;;5.43;2.78;;;;;;;;;;5154710;27;20200;-72
2021/03/29 09:21:05;;;;;;;4.45;2.38;;;;;;;;;;5154835;27;20191;-71
2021/03/29 09:23:31;;;;;;;6.95;3.35;;;;;;;;;;5155391;27;20268;-71
2021/03/29 09:25:59;;;;;;;4.30;2.55;;;;;;;;;;5155183;27;20208;-71
2021/03/29 09:28:33;;;;;;;5.38;2.60;;;;;;;;;;5151421;27;20277;-70
2021/03/29 09:31:01;;;;;;;5.35;3.40;;;;;;;;;;5155239;27;20574;-71
2021/03/29 09:33:28;;;;;;;5.03;2.33;;;;;;;;;;5155360;27;20296;-71
2021/03/29 09:35:54;;;;;;;3.72;2.65;;;;;;;;;;5153566;27;20257;-71
2021/03/29 09:38:30;;;;;;;4.50;2.33;;;;;;;;;;5139042;27;20194;-70
2021/03/29 09:40:56;;;;;;;4.45;2.50;;;;;;;;;;5152896;27;20193;-71
2021/03/29 09:43:23;;;;;;;3.35;2.60;;;;;;;;;;5155334;27;20203;-72
2021/03/29 09:45:49;;;;;;;3.78;2.13;;;;;;;;;;5154461;27;20197;-70
2021/03/29 09:48:16;;;;;;;7.90;4.22;;;;;;;;;;5154796;27;20204;-71
2021/03/29 09:50:43;;;;;;;7.07;2.10;;;;;;;;;;5154752;27;20690;-71
2021/03/29 09:53:11;;;;;;;6.00;2.45;;;;;;;;;;5154611;27;20233;-72
2021/03/29 09:55:40;;;;;;;6.75;2.60;;;;;;;;;;5152614;27;20927;-71
2021/03/29 09:58:16;;;;;;;4.30;2.50;;;;;;;;;;5154084;27;20194;-72
2021/03/29 10:00:42;;;;;;;4.22;2.97;;;;;;;;;;5154101;27;20201;-71
2021/03/29 10:03:08;;;;;;;3.92;1.85;;;;;;;;;;5154647;27;20196;-71
2021/03/29 10:05:36;;;;;;;3.92;2.35;;;;;;;;;;5154909;27;20549;-70
2021/03/29 10:08:02;;;;;;;4.53;2.03;;;;;;;;;;5154186;27;20265;-71
2021/03/29 10:10:29;;;;;;;5.90;2.70;;;;;;;;;;5154914;27;20202;-72
2021/03/29 10:13:05;;;;;;;4.00;2.30;;;;;;;;;;5154164;27;20213;-73
2021/03/29 10:15:32;;;;;;;5.38;2.58;;;;;;;;;;5152237;27;20193;-71
2021/03/29 10:18:05;;;;;;;5.07;2.50;;;;;;;;;;5154544;27;20229;-71
2021/03/29 10:20:34;;;;;;;3.85;2.25;;;;;;;;;;5155036;27;20548;-71
2021/03/29 10:23:14;;;;;;;2.63;2.35;;;;;;;;;;5146723;27;20708;-70
2021/03/29 10:25:41;;;;;;;9.25;2.83;;;;;;;;;;5154335;27;20312;-70
2021/03/29 10:28:17;;;;;;;4.18;2.55;;;;;;;;;;5154456;27;20226;-71
2021/03/29 10:30:43;;;;;;;4.00;2.30;;;;;;;;;;5154226;27;20186;-71
2021/03/29 10:33:09;;;;;;;4.05;1.90;;;;;;;;;;5142437;27;20204;-71
2021/03/29 10:35:36;;;;;;;4.32;1.98;;;;;;;;;;5133108;28;20290;-71
2021/03/29 10:38:03;;;;;;;2.22;2.03;;;;;;;;;;5134293;27;20605;-70
2021/03/29 10:40:29;;;;;;;3.05;2.00;;;;;;;;;;5134190;27;20199;-71
2021/03/29 10:42:56;;;;;;;4.70;2.25;;;;;;;;;;5133801;27;20198;-70
2021/03/29 10:45:22;;;;;;;4.47;2.85;;;;;;;;;;5134178;27;20183;-70
2021/03/29 10:47:49;;;;;;;3.03;2.60;;;;;;;;;;5133751;27;20190;-72
2021/03/29 10:50:15;;;;;;;8.63;3.05;;;;;;;;;;5133938;27;20607;-72
2021/03/29 10:52:41;;;;;;;3.63;1.85;;;;;;;;;;5134180;28;20294;-70
2021/03/29 10:55:08;;;;;;;5.65;2.30;;;;;;;;;;5152218;27;20195;-71
2021/03/29 10:57:34;;;;;;;3.33;2.40;;;;;;;;;;5154708;27;20207;-71
2021/03/29 11:00:01;;;;;;;2.63;1.90;;;;;;;;;;5158030;27;20203;-70
2021/03/29 11:02:29;;;;;;;2.75;2.15;;;;;;;;;;5148297;27;20275;-71
2021/03/29 11:04:55;;;;;;;1.75;1.50;;;;;;;;;;5136908;27;20220;-72
2021/03/29 11:07:21;;;;;;;5.30;1.85;;;;;;;;;;5137400;27;20202;-71
2021/03/29 11:09:47;;;;;;;3.08;2.50;;;;;;;;;;5147561;27;20202;-71
2021/03/29 11:12:13;;;;;;;4.40;2.58;;;;;;;;;;5157880;27;20215;-71
2021/03/29 11:14:39;;;;;;;4.13;1.92;;;;;;;;;;5158050;27;20231;-70
2021/03/29 11:17:08;;;;;;;8.10;1.88;;;;;;;;;;5157862;27;20671;-71
2021/03/29 11:19:34;;;;;;;3.47;1.88;;;;;;;;;;5149555;27;20195;-72
2021/03/29 11:22:00;;;;;;;2.23;1.53;;;;;;;;;;5138128;27;20183;-70
2021/03/29 11:24:26;;;;;;;3.90;2.92;;;;;;;;;;5147722;27;20943;-71
2021/03/29 11:26:52;;;;;;;2.22;1.50;;;;;;;;;;5136120;27;20226;-72
2021/03/29 11:29:18;;;;;;;4.00;1.70;;;;;;;;;;5150158;27;20199;-73
2021/03/29 11:31:46;;;;;;;3.90;2.72;;;;;;;;;;5150285;27;20615;-71
2021/03/29 11:34:13;;;;;;;5.63;2.30;;;;;;;;;;5136967;27;20205;-71
2021/03/29 11:36:40;;;;;;;4.05;1.50;;;;;;;;;;5144206;27;20251;-71
2021/03/29 11:39:06;;;;;;;2.50;1.70;;;;;;;;;;5157343;27;20612;-72
2021/03/29 11:41:32;;;;;;;3.80;2.00;;;;;;;;;;5157383;27;20255;-72
2021/03/29 11:43:59;;;;;;;2.97;1.60;;;;;;;;;;5156724;27;20297;-71
2021/03/29 11:46:25;;;;;;;4.32;2.20;;;;;;;;;;5156878;27;20208;-72
2021/03/29 11:48:51;;;;;;;2.53;1.50;;;;;;;;;;5155392;27;20585;-71
2021/03/29 11:51:18;;;;;;;5.20;1.98;;;;;;;;;;5157262;27;20201;-71
2021/03/29 11:53:44;;;;;;;2.22;1.80;;;;;;;;;;5156475;27;20223;-72
2021/03/29 11:56:10;;;;;;;4.95;2.00;;;;;;;;;;5139589;27;20195;-72
2021/03/29 11:58:36;;;;;;;2.78;1.60;;;;;;;;;;5136746;27;20721;-71
2021/03/29 12:01:09;;;;;;;3.38;2.13;;;;;;;;;;5152631;27;20215;-72
2021/03/29 12:03:39;;;;;;;2.33;1.80;;;;;;;;;;5157310;27;20182;-71
2021/03/29 12:06:08;;;;;;;2.75;1.60;;;;;;;;;;5157096;27;20188;-71
2021/03/29 12:08:40;;;;;;;5.82;2.38;;;;;;;;;;5155116;27;20967;-71
2021/03/29 12:13:52;;;;;;;4.30;1.77;;;;;;;;;;5155055;27;20242;-69
2021/03/29 12:16:20;;;;;;;2.28;1.85;;;;;;;;;;5154765;27;20271;-71
2021/03/29 12:18:48;;;;;;;3.80;2.20;;;;;;;;;;5156605;27;20184;-71
2021/03/29 12:21:16;;;;;;;5.05;2.20;;;;;;;;;;5156612;27;20190;-71
2021/03/29 12:23:44;;;;;;;3.20;1.45;;;;;;;;;;5156424;27;20674;-71
2021/03/29 12:26:11;;;;;;;6.47;1.77;;;;;;;;;;5156256;27;20291;-73
2021/03/29 12:28:43;;;;;;;4.93;1.80;;;;;;;;;;5156493;27;20290;-71
2021/03/29 12:31:10;;;;;;;2.65;2.10;;;;;;;;;;5156023;27;20288;-71
2021/03/29 12:33:36;;;;;;;2.13;1.85;;;;;;;;;;5156525;27;20238;-70
2021/03/29 12:36:03;;;;;;;3.60;1.70;;;;;;;;;;5154075;27;20713;-69
2021/03/29 12:38:32;;;;;;;2.13;1.55;;;;;;;;;;5144398;27;20209;-70
2021/03/29 12:41:02;;;;;;;3.20;1.75;;;;;;;;;;5156093;27;20610;-70
2021/03/29 12:43:37;;;;;;;4.90;2.75;;;;;;;;;;5156306;27;20191;-71
2021/03/29 12:46:04;;;;;;;4.50;1.92;;;;;;;;;;5156861;27;20180;-71
2021/03/29 12:48:30;;;;;;;3.33;1.83;;;;;;;;;;5155860;27;20205;-72
2021/03/29 12:50:59;;;;;;;2.83;2.13;;;;;;;;;;5156154;27;20285;-71
2021/03/29 12:53:27;;;;;;;4.40;2.00;;;;;;;;;;5155877;27;20361;-71
2021/03/29 12:55:53;;;;;;;7.50;2.33;;;;;;;;;;5156215;27;20186;-71
2021/03/29 12:58:20;;;;;;;2.38;1.60;;;;;;;;;;5155669;27;20629;-72
2021/03/29 13:00:47;;;;;;;3.17;1.90;;;;;;;;;;5148809;27;20197;-71
2021/03/29 13:03:14;;;;;;;2.65;1.63;;;;;;;;;;5135431;27;20543;-71
2021/03/29 13:05:44;;;;;;;3.70;1.90;;;;;;;;;;5135149;27;20233;-71
2021/03/29 13:08:14;;;;;;;2.60;2.03;;;;;;;;;;5145140;27;20431;-71
2021/03/29 13:11:01;;;;;;;2.77;2.13;;;;;;;;;;5155913;27;20893;-70
2021/03/29 13:13:29;;;;;;;2.30;1.63;;;;;;;;;;5156449;27;20923;-70
2021/03/29 13:15:55;;;;;;;4.83;2.27;;;;;;;;;;5147798;27;20516;-70
2021/03/29 13:18:21;;;;;;;1.93;1.57;;;;;;;;;;5134369;27;20523;-70
2021/03/29 13:20:47;;;;;;;3.47;2.10;;;;;;;;;;5134327;27;20800;-72
2021/03/29 13:23:14;;;;;;;2.27;1.60;;;;;;;;;;5134925;27;20422;-71
2021/03/29 13:25:40;;;;;;;3.33;1.90;;;;;;;;;;5135141;27;20555;-71
2021/03/29 13:28:06;;;;;;;5.67;2.03;;;;;;;;;;5134346;27;20898;-72
2021/03/29 13:30:33;;;;;;;2.37;1.97;;;;;;;;;;5134334;27;20505;-72
2021/03/29 13:33:01;;;;;;;4.70;2.07;;;;;;;;;;5134732;27;20511;-71
2021/03/29 13:35:28;;;;;;;4.23;1.53;;;;;;;;;;5134167;27;20484;-72
2021/03/29 13:37:54;;;;;;;2.30;1.70;;;;;;;;;;5134087;27;20442;-72
2021/03/29 13:40:21;;;;;;;3.10;1.77;;;;;;;;;;5133832;27;20446;-71
2021/03/29 13:42:48;;;;;;;3.37;1.83;;;;;;;;;;5134150;27;20914;-72
2021/03/29 13:45:15;;;;;;;3.30;1.67;;;;;;;;;;5143284;27;20441;-72
2021/03/29 13:47:42;;;;;;;5.30;2.73;;;;;;;;;;5154914;27;20450;-72
2021/03/29 13:50:09;;;;;;;3.10;2.07;;;;;;;;;;5154330;27;20468;-72
2021/03/29 13:52:36;;;;;;;2.67;2.03;;;;;;;;;;5151251;27;20605;-72
2021/03/29 13:55:03;;;;;;;4.23;2.10;;;;;;;;;;5134059;27;20436;-71
2021/03/29 13:57:30;;;;;;;3.10;1.70;;;;;;;;;;5134243;27;20448;-72
2021/03/29 13:59:56;;;;;;;6.47;2.33;;;;;;;;;;5134657;27;20448;-71
2021/03/29 14:02:22;;;;;;;4.00;2.50;;;;;;;;;;5133701;27;20479;-73
2021/03/29 14:04:50;;;;;;;2.03;1.50;;;;;;;;;;5133736;27;20473;-71
2021/03/29 14:07:17;;;;;;;4.40;2.50;;;;;;;;;;5133909;27;20810;-71
2021/03/29 14:09:44;;;;;;;2.63;2.43;;;;;;;;;;5133336;27;20875;-72
2021/03/29 14:12:11;;;;;;;3.07;1.60;;;;;;;;;;5133396;27;20501;-72
2021/03/29 14:14:37;;;;;;;4.30;1.47;;;;;;;;;;5141908;27;20446;-73
2021/03/29 14:17:04;;;;;;;3.00;2.10;;;;;;;;;;5154171;27;20450;-71
2021/03/29 14:19:30;;;;;;;2.70;2.00;;;;;;;;;;5153733;27;20451;-71
2021/03/29 14:21:57;;;;;;;2.40;2.03;;;;;;;;;;5153852;27;20481;-72
2021/03/29 14:24:24;;;;;;;3.67;1.80;;;;;;;;;;5154723;27;20837;-71
2021/03/29 14:26:50;;;;;;;4.73;1.87;;;;;;;;;;5149797;27;20473;-70
2021/03/29 14:29:17;;;;;;;4.20;2.17;;;;;;;;;;5132938;28;20471;-71
2021/03/29 14:31:43;;;;;;;5.27;2.30;;;;;;;;;;5132968;27;20426;-71
2021/03/29 14:34:10;;;;;;;2.60;1.67;;;;;;;;;;5136836;27;20927;-70
2021/03/29 14:36:44;;;;;;;3.30;1.77;;;;;;;;;;5136824;27;20480;-72
2021/03/29 14:39:18;;;;;;;3.00;1.27;;;;;;;;;;5136771;27;20435;-71
2021/03/29 14:42:00;;;;;;;2.33;1.60;;;;;;;;;;5138853;27;20444;-71
2021/03/29 14:44:31;;;;;;;3.17;1.90;;;;;;;;;;5148111;27;20439;-71
2021/03/29 14:46:58;;;;;;;2.73;2.17;;;;;;;;;;5136394;27;20531;-71
2021/03/29 14:49:25;;;;;;;3.63;2.27;;;;;;;;;;5136219;27;20467;-72